createdAt,value
2018-03-06T00:01:12.196Z,52.50
2018-03-06T00:03:40.687Z,54.07
2018-03-06T00:06:09.159Z,53.70
2018-03-06T00:08:37.488Z,50.40
2018-03-06T00:11:05.963Z,52.10
2018-03-06T00:13:34.296Z,51.80
2018-03-06T00:16:03.140Z,52.47
2018-03-06T00:18:32.191Z,55.50
2018-03-06T00:21:00.444Z,50.93
2018-03-06T00:23:29.085Z,56.90
2018-03-06T00:25:57.421Z,52.17
2018-03-06T00:28:25.756Z,53.93
2018-03-06T00:30:54.180Z,54.10
2018-03-06T00:33:23.475Z,55.07
2018-03-06T00:35:51.835Z,54.80
2018-03-06T00:38:21.028Z,55.47
2018-03-06T00:40:49.306Z,52.10
2018-03-06T00:43:16.809Z,56.50
2018-03-06T00:45:46.108Z,56.80
2018-03-06T00:48:15.466Z,57.50
2018-03-06T00:50:44.221Z,56.40
2018-03-06T00:53:13.232Z,58.30
2018-03-06T00:55:43.716Z,56.17
2018-03-06T00:58:12.818Z,53.27
2018-03-06T01:00:41.504Z,54.40
2018-03-06T01:03:11.395Z,56.90
2018-03-06T01:05:41.136Z,59.57
2018-03-06T01:08:10.996Z,59.40
2018-03-06T01:10:39.453Z,59.17
2018-03-06T01:13:07.844Z,58.80
2018-03-06T01:15:35.984Z,57.83
2018-03-06T01:18:04.376Z,57.87
2018-03-06T01:20:33.472Z,60.60
2018-03-06T01:23:01.793Z,56.77
2018-03-06T01:25:30.187Z,60.67
2018-03-06T01:27:58.475Z,57.20
2018-03-06T01:30:26.820Z,59.17
2018-03-06T01:32:55.179Z,59.50
2018-03-06T01:35:23.504Z,57.70
2018-03-06T01:37:51.917Z,57.03
2018-03-06T01:40:20.252Z,57.60
2018-03-06T01:42:48.594Z,61.60
2018-03-06T01:45:16.985Z,60.97
2018-03-06T01:47:45.328Z,59.37
2018-03-06T01:50:13.660Z,54.20
2018-03-06T01:52:42.022Z,54.73
2018-03-06T01:55:10.362Z,60.87
2018-03-06T01:57:38.687Z,61.43
2018-03-06T02:00:07.043Z,61.33
2018-03-06T02:02:35.425Z,56.60
2018-03-06T02:05:03.754Z,63.07
2018-03-06T02:07:32.091Z,58.27
2018-03-06T02:10:00.473Z,61.80
2018-03-06T02:12:28.826Z,61.33
2018-03-06T02:14:57.323Z,60.77
2018-03-06T02:17:25.676Z,60.40
2018-03-06T02:19:54.024Z,64.33
2018-03-06T02:22:22.829Z,66.87
2018-03-06T02:24:51.173Z,62.53
2018-03-06T02:27:21.021Z,68.30
2018-03-06T02:29:49.704Z,65.67
2018-03-06T02:32:17.801Z,58.20
2018-03-06T02:34:46.255Z,60.27
2018-03-06T02:37:14.724Z,55.60
2018-03-06T02:39:44.012Z,58.90
2018-03-06T02:42:12.449Z,59.97
2018-03-06T02:44:40.852Z,62.15
2018-03-06T02:47:09.258Z,56.80
2018-03-06T02:49:37.900Z,59.25
2018-03-06T02:52:06.255Z,62.97
2018-03-06T02:54:34.595Z,56.67
2018-03-06T02:57:02.960Z,58.75
2018-03-06T02:59:31.327Z,58.80
2018-03-06T03:01:59.673Z,58.70
2018-03-06T03:04:28.055Z,57.35
2018-03-06T03:06:56.476Z,59.25
2018-03-06T03:09:24.817Z,57.70
2018-03-06T03:11:53.200Z,55.15
2018-03-06T03:14:21.548Z,61.40
2018-03-06T03:16:50.644Z,52.93
2018-03-06T03:19:19.036Z,52.53
2018-03-06T03:21:47.801Z,58.80
2018-03-06T03:24:16.652Z,54.87
2018-03-06T03:26:45.063Z,55.23
2018-03-06T03:29:13.405Z,53.65
2018-03-06T03:31:41.773Z,56.77
2018-03-06T03:34:10.111Z,58.90
2018-03-06T03:36:38.601Z,57.75
2018-03-06T03:39:06.956Z,58.77
2018-03-06T03:41:35.304Z,62.93
2018-03-06T03:44:03.723Z,60.75
2018-03-06T03:46:32.452Z,61.43
2018-03-06T03:49:00.786Z,63.47
2018-03-06T03:51:29.168Z,56.43
2018-03-06T03:53:58.279Z,65.62
2018-03-06T03:56:26.980Z,61.83
2018-03-06T03:58:55.806Z,64.78
2018-03-06T04:01:24.256Z,61.97
2018-03-06T04:03:52.600Z,63.97
2018-03-06T04:06:22.568Z,65.72
2018-03-06T04:08:50.923Z,57.90
2018-03-06T04:11:19.308Z,68.85
2018-03-06T04:13:47.661Z,62.42
2018-03-06T04:16:17.867Z,68.87
2018-03-06T04:18:47.040Z,70.35
2018-03-06T04:21:15.457Z,70.28
2018-03-06T04:23:43.804Z,74.85
2018-03-06T04:26:12.178Z,74.20
2018-03-06T04:28:40.520Z,74.82
2018-03-06T04:31:09.660Z,75.75
2018-03-06T04:33:38.000Z,70.37
2018-03-06T04:36:07.032Z,68.57
2018-03-06T04:38:35.423Z,78.82
2018-03-06T04:41:04.936Z,72.75
2018-03-06T04:43:34.092Z,77.30
2018-03-06T04:46:02.436Z,67.50
2018-03-06T04:48:30.769Z,71.20
2018-03-06T04:50:59.148Z,75.05
2018-03-06T04:53:28.264Z,77.72
2018-03-06T04:55:56.608Z,75.25
2018-03-06T04:58:25.088Z,77.87
2018-03-06T05:00:53.436Z,82.03
2018-03-06T05:03:21.834Z,84.43
2018-03-06T05:05:50.671Z,78.12
2018-03-06T05:08:19.073Z,76.47
2018-03-06T05:10:47.447Z,77.20
2018-03-06T05:13:15.780Z,77.95
2018-03-06T05:15:44.799Z,76.85
2018-03-06T05:18:13.135Z,86.37
2018-03-06T05:20:41.509Z,84.10
2018-03-06T05:23:09.919Z,86.15
2018-03-06T05:25:38.271Z,85.95
2018-03-06T05:28:06.624Z,90.47
2018-03-06T05:30:35.292Z,89.85
2018-03-06T05:33:03.640Z,86.82
2018-03-06T05:35:31.980Z,80.70
2018-03-06T05:38:00.354Z,87.88
2018-03-06T05:40:28.859Z,86.30
2018-03-06T05:42:57.268Z,91.80
2018-03-06T05:45:25.663Z,94.75
2018-03-06T05:47:54.054Z,91.78
2018-03-06T05:50:22.227Z,96.72
2018-03-06T05:52:56.797Z,99.47
2018-03-06T05:55:25.199Z,91.78
2018-03-06T05:57:53.600Z,100.72
2018-03-06T06:00:21.960Z,98.28
2018-03-06T06:02:50.362Z,90.22
2018-03-06T06:05:18.703Z,98.60
2018-03-06T06:07:47.087Z,95.72
2018-03-06T06:10:15.488Z,97.15
2018-03-06T06:12:43.834Z,96.55
2018-03-06T06:15:12.177Z,95.00
2018-03-06T06:17:40.782Z,83.87
2018-03-06T06:20:09.534Z,82.62
2018-03-06T06:22:38.079Z,74.28
2018-03-06T06:25:06.703Z,79.00
2018-03-06T06:27:35.097Z,79.25
2018-03-06T06:30:03.433Z,73.60
2018-03-06T06:32:31.804Z,66.68
2018-03-06T06:35:00.182Z,65.53
2018-03-06T06:37:28.685Z,63.05
2018-03-06T06:39:57.792Z,62.50
2018-03-06T06:42:26.170Z,64.30
2018-03-06T06:44:54.505Z,63.40
2018-03-06T06:47:23.158Z,55.20
2018-03-06T06:49:51.612Z,57.75
2018-03-06T06:52:20.416Z,59.17
2018-03-06T06:54:48.752Z,52.62
2018-03-06T06:57:17.726Z,55.60
2018-03-06T06:59:46.055Z,51.42
2018-03-06T07:02:14.380Z,53.00
2018-03-06T07:04:42.765Z,48.90
2018-03-06T07:07:11.168Z,49.00
2018-03-06T07:09:40.084Z,49.07
2018-03-06T07:12:08.410Z,49.80
2018-03-06T07:14:36.720Z,47.90
2018-03-06T07:17:05.148Z,48.30
2018-03-06T07:19:33.471Z,47.70
2018-03-06T07:22:01.792Z,47.43
2018-03-06T07:24:30.154Z,46.63
2018-03-06T07:26:58.482Z,47.53
2018-03-06T07:29:28.116Z,48.93
2018-03-06T07:31:57.217Z,45.70
2018-03-06T07:34:25.579Z,47.57
2018-03-06T07:36:53.917Z,42.93
2018-03-06T07:39:22.228Z,43.77
2018-03-06T07:41:50.663Z,46.03
2018-03-06T07:44:18.916Z,48.07
2018-03-06T07:46:48.064Z,41.50
2018-03-06T07:49:16.372Z,46.00
2018-03-06T07:51:44.675Z,44.60
2018-03-06T07:54:14.977Z,43.03
2018-03-06T07:56:43.294Z,43.93
2018-03-06T07:59:11.652Z,43.10
2018-03-06T08:01:40.157Z,45.33
2018-03-06T08:04:09.598Z,44.60
2018-03-06T08:06:37.912Z,42.93
2018-03-06T08:09:06.295Z,41.20
2018-03-06T08:11:34.619Z,45.87
2018-03-06T08:14:02.940Z,42.67
2018-03-06T08:16:31.377Z,41.83
2018-03-06T08:18:59.692Z,44.80
2018-03-06T08:21:27.999Z,40.13
2018-03-06T08:23:56.351Z,42.03
2018-03-06T08:26:24.704Z,41.30
2018-03-06T08:28:54.002Z,41.07
2018-03-06T08:31:22.364Z,39.93
2018-03-06T08:33:50.684Z,39.37
2018-03-06T08:36:19.188Z,38.83
2018-03-06T08:38:47.506Z,39.20
2018-03-06T08:41:15.731Z,45.67
2018-03-06T08:43:44.077Z,43.40
2018-03-06T08:46:12.388Z,42.93
2018-03-06T08:48:41.483Z,42.40
2018-03-06T08:51:11.316Z,42.90
2018-03-06T08:53:39.636Z,42.57
2018-03-06T08:56:07.947Z,44.70
2018-03-06T08:58:37.064Z,42.87
2018-03-06T09:01:05.384Z,45.03
2018-03-06T09:03:33.711Z,43.97
2018-03-06T09:06:02.070Z,44.07
2018-03-06T09:08:30.391Z,43.63
2018-03-06T09:10:58.740Z,41.47
2018-03-06T09:13:27.111Z,43.73
2018-03-06T09:15:56.300Z,41.60
2018-03-06T09:18:24.715Z,40.63
2018-03-06T09:20:53.028Z,42.87
2018-03-06T09:23:21.374Z,44.00
2018-03-06T09:25:49.881Z,43.37
2018-03-06T09:28:18.192Z,42.70
2018-03-06T09:30:46.556Z,41.10
2018-03-06T09:33:14.877Z,40.10
2018-03-06T09:35:43.340Z,43.07
2018-03-06T09:38:12.144Z,39.50
2018-03-06T09:40:40.469Z,41.07
2018-03-06T09:43:08.836Z,43.77
2018-03-06T09:45:37.152Z,40.30
2018-03-06T09:48:05.519Z,43.50
2018-03-06T09:50:33.955Z,43.03
2018-03-06T09:53:02.280Z,42.23
2018-03-06T09:55:30.601Z,41.23
2018-03-06T09:57:58.953Z,44.97
2018-03-06T10:00:28.036Z,44.10
2018-03-06T10:02:56.411Z,43.07
2018-03-06T10:05:25.820Z,42.20
2018-03-06T10:07:54.227Z,42.60
2018-03-06T10:10:23.180Z,46.60
2018-03-06T10:12:51.546Z,43.80
2018-03-06T10:15:20.230Z,43.87
2018-03-06T10:17:48.347Z,43.17
2018-03-06T10:20:16.664Z,44.20
2018-03-06T10:22:45.092Z,45.00
2018-03-06T10:25:13.420Z,46.27
2018-03-06T10:27:42.835Z,46.03
2018-03-06T10:30:12.623Z,45.87
2018-03-06T10:32:41.417Z,44.33
2018-03-06T10:35:10.152Z,44.33
2018-03-06T10:37:39.244Z,44.83
2018-03-06T10:40:07.573Z,44.53
2018-03-06T10:42:37.516Z,46.67
2018-03-06T10:45:06.260Z,45.53
2018-03-06T10:47:34.590Z,46.47
2018-03-06T10:50:02.914Z,44.20
2018-03-06T10:52:31.616Z,45.40
2018-03-06T10:54:59.941Z,45.60
2018-03-06T10:57:28.356Z,46.93
2018-03-06T10:59:56.716Z,48.30
2018-03-06T11:02:33.041Z,49.03
2018-03-06T11:05:01.369Z,52.40
2018-03-06T11:07:29.789Z,48.63
2018-03-06T11:09:58.176Z,51.70
2018-03-06T11:12:26.820Z,49.40
2018-03-06T11:14:55.186Z,48.77
2018-03-06T11:17:24.700Z,50.37
2018-03-06T11:19:53.297Z,47.90
2018-03-06T11:22:21.612Z,47.97
2018-03-06T11:24:49.958Z,47.60
2018-03-06T11:27:18.314Z,54.17
2018-03-06T11:29:46.988Z,49.93
2018-03-06T11:32:15.304Z,50.23
2018-03-06T11:34:43.711Z,51.93
2018-03-06T11:37:12.028Z,51.20
2018-03-06T11:39:41.173Z,48.40
2018-03-06T11:42:09.536Z,52.93
2018-03-06T11:44:38.675Z,52.07
2018-03-06T11:47:06.994Z,51.23
2018-03-06T11:49:35.615Z,49.80
2018-03-06T11:52:03.936Z,53.07
2018-03-06T11:54:32.259Z,48.97
2018-03-06T11:57:00.692Z,51.50
2018-03-06T11:59:29.406Z,52.57
2018-03-06T12:01:57.921Z,49.70
2018-03-06T12:04:27.128Z,50.27
2018-03-06T12:06:55.944Z,51.73
2018-03-06T12:09:25.036Z,53.97
2018-03-06T12:11:53.356Z,57.27
2018-03-06T12:14:21.930Z,57.23
2018-03-06T12:16:50.317Z,52.87
2018-03-06T12:19:18.627Z,53.57
2018-03-06T12:21:47.488Z,52.80
2018-03-06T12:24:16.724Z,52.80
2018-03-06T12:26:47.901Z,49.90
2018-03-06T12:29:17.040Z,52.70
2018-03-06T12:31:45.407Z,53.17
2018-03-06T12:34:14.457Z,47.20
2018-03-06T12:36:43.436Z,49.50
2018-03-06T12:39:12.217Z,53.27
2018-03-06T12:41:40.982Z,53.87
2018-03-06T12:44:09.421Z,54.40
2018-03-06T12:46:37.743Z,56.83
2018-03-06T12:49:06.768Z,55.33
2018-03-06T12:51:35.669Z,55.30
2018-03-06T12:54:04.104Z,54.83
2018-03-06T12:56:32.238Z,54.10
2018-03-06T12:59:00.598Z,57.77
2018-03-06T13:01:31.137Z,54.57
2018-03-06T13:04:00.252Z,55.27
2018-03-06T13:06:29.420Z,55.87
2018-03-06T13:08:57.892Z,57.20
2018-03-06T13:11:26.218Z,54.50
2018-03-06T13:13:54.951Z,54.43
2018-03-06T13:16:23.282Z,53.00
2018-03-06T13:18:51.665Z,52.17
2018-03-06T13:21:20.400Z,50.70
2018-03-06T13:23:48.740Z,53.37
2018-03-06T13:26:17.071Z,53.30
2018-03-06T13:28:46.311Z,54.77
2018-03-06T13:31:15.051Z,51.63
2018-03-06T13:33:44.148Z,49.37
2018-03-06T13:36:12.476Z,49.37
2018-03-06T13:38:40.837Z,49.23
2018-03-06T13:41:09.661Z,52.93
2018-03-06T13:43:37.981Z,43.20
2018-03-06T13:46:06.341Z,43.60
2018-03-06T13:48:36.681Z,44.80
2018-03-06T13:51:05.615Z,45.70
2018-03-06T13:53:34.386Z,38.80
2018-03-06T13:56:03.520Z,37.90
2018-03-06T13:58:32.432Z,42.03
2018-03-06T14:01:00.751Z,39.60
2018-03-06T14:03:29.104Z,37.87
2018-03-06T14:05:57.407Z,37.20
2018-03-06T14:08:26.481Z,36.90
2018-03-06T14:10:55.196Z,35.17
2018-03-06T14:13:23.516Z,36.50
2018-03-06T14:15:52.554Z,35.33
2018-03-06T14:18:21.062Z,35.13
2018-03-06T14:20:49.732Z,39.40
2018-03-06T14:23:18.419Z,40.80
2018-03-06T14:25:47.512Z,39.53
2018-03-06T14:28:16.037Z,40.40
2018-03-06T14:30:44.400Z,38.63
2018-03-06T14:33:12.724Z,37.27
2018-03-06T14:35:42.564Z,36.53
2018-03-06T14:38:12.781Z,36.57
2018-03-06T14:40:41.453Z,40.77
2018-03-06T14:43:10.301Z,51.80
2018-03-06T14:45:39.327Z,39.20
2018-03-06T14:48:08.983Z,43.03
2018-03-06T14:50:38.041Z,37.40
2018-03-06T14:53:06.361Z,39.60
2018-03-06T14:55:35.868Z,38.53
2018-03-06T14:58:03.993Z,36.83
2018-03-06T15:00:32.322Z,35.47
2018-03-06T15:03:00.696Z,40.47
2018-03-06T15:05:29.016Z,42.17
2018-03-06T15:07:59.372Z,38.20
2018-03-06T15:10:27.987Z,39.33
2018-03-06T15:12:56.636Z,37.57
2018-03-06T15:15:25.068Z,37.60
2018-03-06T15:17:53.380Z,39.67
2018-03-06T15:20:21.804Z,43.13
2018-03-06T15:22:50.116Z,41.90
2018-03-06T15:25:18.428Z,38.40
2018-03-06T15:27:47.396Z,39.70
2018-03-06T15:30:15.707Z,40.20
2018-03-06T15:32:44.037Z,35.90
2018-03-06T15:35:12.404Z,38.70
2018-03-06T15:37:40.723Z,40.03
2018-03-06T15:40:09.059Z,39.10
2018-03-06T15:42:37.400Z,41.60
2018-03-06T15:45:05.480Z,38.77
2018-03-06T15:47:33.855Z,42.07
2018-03-06T15:50:02.178Z,38.00
2018-03-06T15:52:30.491Z,43.70
2018-03-06T15:54:59.603Z,42.60
2018-03-06T15:57:28.019Z,39.23
2018-03-06T15:59:59.405Z,44.60
2018-03-06T16:02:28.349Z,37.73
2018-03-06T16:04:57.710Z,37.97
2018-03-06T16:07:26.026Z,37.33
2018-03-06T16:09:54.383Z,39.43
2018-03-06T16:12:22.775Z,40.30
2018-03-06T16:14:51.081Z,38.37
2018-03-06T16:17:19.420Z,37.97
2018-03-06T16:19:53.588Z,39.97
2018-03-06T16:22:22.189Z,41.13
2018-03-06T16:24:50.752Z,41.40
2018-03-06T16:27:19.066Z,41.90
2018-03-06T16:29:48.184Z,44.03
2018-03-06T16:32:16.549Z,42.00
2018-03-06T16:34:45.197Z,43.00
2018-03-06T16:37:13.981Z,45.97
2018-03-06T16:39:43.276Z,43.90
2018-03-06T16:42:11.679Z,44.50
2018-03-06T16:44:40.000Z,45.47
2018-03-06T16:47:08.364Z,45.77
2018-03-06T16:49:36.677Z,46.93
2018-03-06T16:52:04.994Z,45.60
2018-03-06T16:54:33.364Z,42.23
2018-03-06T16:57:01.733Z,41.43
2018-03-06T16:59:31.824Z,43.80
2018-03-06T17:01:59.956Z,45.97
2018-03-06T17:04:29.443Z,44.17
2018-03-06T17:06:57.760Z,46.23
2018-03-06T17:09:27.148Z,49.03
2018-03-06T17:11:56.779Z,46.70
2018-03-06T17:14:27.380Z,47.97
2018-03-06T17:16:56.563Z,47.70
2018-03-06T17:19:24.888Z,51.80
2018-03-06T17:21:53.316Z,47.37
2018-03-06T17:24:21.628Z,48.13
2018-03-06T17:26:49.936Z,50.27
2018-03-06T17:29:18.317Z,50.57
2018-03-06T17:31:47.035Z,50.23
2018-03-06T17:34:15.348Z,47.40
2018-03-06T17:36:43.729Z,46.20
2018-03-06T17:39:12.048Z,48.33
2018-03-06T17:41:40.362Z,43.00
2018-03-06T17:44:08.729Z,46.30
2018-03-06T17:46:37.808Z,46.53
2018-03-06T17:49:06.116Z,46.00
2018-03-06T17:51:35.144Z,48.50
2018-03-06T17:54:03.533Z,53.73
2018-03-06T17:56:32.120Z,52.93
2018-03-06T17:59:00.545Z,52.00
2018-03-06T18:01:28.981Z,50.43
2018-03-06T18:03:58.094Z,47.40
2018-03-06T18:06:26.413Z,47.60
2018-03-06T18:08:55.611Z,48.63
2018-03-06T18:11:24.049Z,47.90
2018-03-06T18:13:53.837Z,47.80
2018-03-06T18:16:22.449Z,45.50
2018-03-06T18:18:50.848Z,47.33
2018-03-06T18:21:19.340Z,48.10
2018-03-06T18:23:47.672Z,48.30
2018-03-06T18:26:16.535Z,51.07
2018-03-06T18:28:44.851Z,51.50
2018-03-06T18:31:13.173Z,47.90
2018-03-06T18:33:42.052Z,49.57
2018-03-06T18:36:11.129Z,47.53
2018-03-06T18:38:39.518Z,48.90
2018-03-06T18:41:07.832Z,47.20
2018-03-06T18:43:36.289Z,46.50
2018-03-06T18:46:04.648Z,47.57
2018-03-06T18:48:35.110Z,46.30
2018-03-06T18:51:12.944Z,47.00
2018-03-06T18:53:41.504Z,43.87
2018-03-06T18:56:09.834Z,50.87
2018-03-06T18:58:39.056Z,46.63
2018-03-06T19:14:43.909Z,37.90
2018-03-06T19:17:12.355Z,42.40
2018-03-06T19:19:41.336Z,42.50
2018-03-06T19:22:09.702Z,41.60
2018-03-06T19:24:38.016Z,43.40
2018-03-06T19:27:06.328Z,46.23
2018-03-06T19:29:35.967Z,47.93
2018-03-06T19:32:04.292Z,43.33
2018-03-06T19:34:32.618Z,48.83
2018-03-06T19:37:01.183Z,43.70
2018-03-06T19:39:29.504Z,48.57
2018-03-06T19:41:59.694Z,42.60
2018-03-06T19:44:28.008Z,47.50
2018-03-06T19:46:57.059Z,47.53
2018-03-06T19:49:25.671Z,52.27
2018-03-06T19:51:53.976Z,59.73
2018-03-06T19:54:22.724Z,44.23
2018-03-06T19:56:51.328Z,45.57
2018-03-06T19:59:20.252Z,45.90
2018-03-06T20:01:48.648Z,41.07
2018-03-06T20:04:18.232Z,43.10
2018-03-06T20:06:46.570Z,41.13
2018-03-06T20:09:15.723Z,41.57
2018-03-06T20:11:44.044Z,45.40
2018-03-06T20:14:12.432Z,43.40
2018-03-06T20:16:41.306Z,43.70
2018-03-06T20:32:50.440Z,39.47
2018-03-06T20:35:19.556Z,40.93
2018-03-06T20:37:48.712Z,39.37
2018-03-06T20:40:22.620Z,38.47
2018-03-06T20:42:50.900Z,40.17
2018-03-06T20:45:19.295Z,41.67
2018-03-06T20:47:47.755Z,38.37
2018-03-06T20:50:16.545Z,39.40
2018-03-06T20:52:50.268Z,41.17
2018-03-06T20:55:18.972Z,40.20
2018-03-06T20:57:47.358Z,41.47
2018-03-06T21:00:17.532Z,41.23
2018-03-06T21:02:46.144Z,39.67
2018-03-06T21:05:14.446Z,40.93
2018-03-06T21:07:43.697Z,43.33
2018-03-06T21:10:12.008Z,43.87
2018-03-06T21:12:41.090Z,41.50
2018-03-06T21:15:09.471Z,44.53
2018-03-06T21:17:37.896Z,43.63
2018-03-06T21:20:08.376Z,42.80
2018-03-06T21:22:39.644Z,41.47
2018-03-06T21:25:07.987Z,41.80
2018-03-06T21:27:36.353Z,43.57
2018-03-06T21:30:05.408Z,41.17
2018-03-06T21:32:34.140Z,44.27
2018-03-06T21:35:03.227Z,38.90
2018-03-06T21:37:31.560Z,40.93
2018-03-06T21:40:00.737Z,39.53
2018-03-06T21:42:29.209Z,42.93
2018-03-06T21:44:57.576Z,43.00
2018-03-06T21:47:26.573Z,40.13
2018-03-06T21:49:55.677Z,41.30
2018-03-06T21:52:24.005Z,39.37
2018-03-06T21:54:52.534Z,41.07
2018-03-06T21:57:20.929Z,37.50
2018-03-06T21:59:50.620Z,39.03
2018-03-06T22:02:19.049Z,42.77
2018-03-06T22:04:48.633Z,40.80
2018-03-06T22:07:17.707Z,40.97
2018-03-06T22:09:46.305Z,41.30
2018-03-06T22:12:15.016Z,44.57
2018-03-06T22:14:43.342Z,40.27
2018-03-06T22:17:11.625Z,39.90
2018-03-06T22:19:39.936Z,41.67
2018-03-06T22:22:09.060Z,41.13
2018-03-06T22:24:37.421Z,41.07
2018-03-06T22:27:05.731Z,39.70
2018-03-06T22:29:34.036Z,44.00
2018-03-06T22:32:02.408Z,41.83
2018-03-06T22:34:30.792Z,45.00
2018-03-06T22:36:59.245Z,43.17
2018-03-06T22:39:27.564Z,41.50
2018-03-06T22:41:55.891Z,45.90
2018-03-06T22:44:24.229Z,42.80
2018-03-06T22:46:52.685Z,45.67
2018-03-06T22:49:21.369Z,44.17
2018-03-06T22:51:49.710Z,41.47
2018-03-06T22:54:18.090Z,41.93
2018-03-06T22:56:46.511Z,45.67
2018-03-06T22:59:14.724Z,47.97
2018-03-06T23:01:43.149Z,43.97
2018-03-06T23:04:11.609Z,44.93
2018-03-06T23:06:40.085Z,44.80
2018-03-06T23:09:08.589Z,43.17
2018-03-06T23:11:37.261Z,44.20
2018-03-06T23:14:06.304Z,44.77
2018-03-06T23:16:34.637Z,43.40
2018-03-06T23:19:02.984Z,48.27
2018-03-06T23:21:31.301Z,46.47
2018-03-06T23:23:59.612Z,49.73
2018-03-06T23:26:27.997Z,46.43
2018-03-06T23:28:56.364Z,46.00
2018-03-06T23:31:24.676Z,48.17
2018-03-06T23:33:53.077Z,49.00
2018-03-06T23:36:21.407Z,45.80
2018-03-06T23:38:49.745Z,43.20
2018-03-06T23:41:18.152Z,48.27
2018-03-06T23:43:46.468Z,48.60
2018-03-06T23:46:14.781Z,43.50
2018-03-06T23:48:43.144Z,44.23
2018-03-06T23:51:11.452Z,45.57
2018-03-06T23:53:39.766Z,46.40
2018-03-06T23:56:08.894Z,43.73
2018-03-06T23:58:37.207Z,48.17
